sensor_id;sensor_type;location;lat;lon;timestamp;pressure;altitude;pressure_sealevel;temperature;humidity
9423;BME280;65863;49.506;10.400;2023-08-08T00:02:42;98068.59;;;11.14;92.31
9423;BME280;65863;49.506;10.400;2023-08-08T00:05:26;98079.34;;;11.31;92.27
9423;BME280;65863;49.506;10.400;2023-08-08T00:08:10;98069.75;;;11.27;92.28
9423;BME280;65863;49.506;10.400;2023-08-08T00:10:53;98097.38;;;11.51;92.33
9423;BME280;65863;49.506;10.400;2023-08-08T00:13:38;98067.38;;;11.39;92.24
9423;BME280;65863;49.506;10.400;2023-08-08T00:16:22;98091.75;;;11.51;92.05
9423;BME280;65863;49.506;10.400;2023-08-08T00:19:06;98075.44;;;11.50;92.10
9423;BME280;65863;49.506;10.400;2023-08-08T00:21:50;98071.69;;;11.47;91.81
9423;BME280;65863;49.506;10.400;2023-08-08T00:24:34;98075.66;;;11.60;91.48
9423;BME280;65863;49.506;10.400;2023-08-08T00:27:18;98084.84;;;11.68;91.27
9423;BME280;65863;49.506;10.400;2023-08-08T00:30:02;98092.91;;;11.71;91.16
9423;BME280;65863;49.506;10.400;2023-08-08T00:32:47;98031.38;;;11.37;90.72
9423;BME280;65863;49.506;10.400;2023-08-08T00:35:30;98066.09;;;11.63;90.88
9423;BME280;65863;49.506;10.400;2023-08-08T00:38:14;98055.97;;;11.67;90.95
9423;BME280;65863;49.506;10.400;2023-08-08T00:41:00;98058.41;;;11.63;90.33
9423;BME280;65863;49.506;10.400;2023-08-08T00:43:44;98058.63;;;11.65;90.28
9423;BME280;65863;49.506;10.400;2023-08-08T00:46:28;98052.00;;;11.55;90.08
9423;BME280;65863;49.506;10.400;2023-08-08T00:49:12;98047.34;;;11.50;90.05
9423;BME280;65863;49.506;10.400;2023-08-08T00:51:56;98044.13;;;11.46;89.97
9423;BME280;65863;49.506;10.400;2023-08-08T00:54:41;98057.47;;;11.53;90.21
9423;BME280;65863;49.506;10.400;2023-08-08T00:57:25;98043.53;;;11.40;90.13
9423;BME280;65863;49.506;10.400;2023-08-08T01:00:09;98026.66;;;11.24;90.09
9423;BME280;65863;49.506;10.400;2023-08-08T01:02:54;98042.03;;;11.23;90.46
9423;BME280;65863;49.506;10.400;2023-08-08T01:05:43;98054.03;;;11.31;90.72
9423;BME280;65863;49.506;10.400;2023-08-08T01:08:38;98062.63;;;11.26;90.83
9423;BME280;65863;49.506;10.400;2023-08-08T01:11:25;98035.00;;;11.01;91.14
9423;BME280;65863;49.506;10.400;2023-08-08T01:14:10;98044.03;;;11.07;91.73
9423;BME280;65863;49.506;10.400;2023-08-08T01:16:57;98045.16;;;11.12;91.98
9423;BME280;65863;49.506;10.400;2023-08-08T01:19:43;98031.25;;;10.98;91.92
9423;BME280;65863;49.506;10.400;2023-08-08T01:22:35;98003.88;;;10.91;92.43
9423;BME280;65863;49.506;10.400;2023-08-08T01:25:21;98059.28;;;11.35;92.77
9423;BME280;65863;49.506;10.400;2023-08-08T01:28:06;98058.16;;;11.38;92.72
9423;BME280;65863;49.506;10.400;2023-08-08T01:30:51;98016.88;;;11.10;92.53
9423;BME280;65863;49.506;10.400;2023-08-08T01:33:35;98048.25;;;11.37;92.84
9423;BME280;65863;49.506;10.400;2023-08-08T01:36:28;98040.56;;;11.30;92.79
9423;BME280;65863;49.506;10.400;2023-08-08T01:39:17;98024.78;;;11.27;92.89
9423;BME280;65863;49.506;10.400;2023-08-08T01:42:06;98047.88;;;11.41;93.15
9423;BME280;65863;49.506;10.400;2023-08-08T01:44:51;98043.75;;;11.42;92.89
9423;BME280;65863;49.506;10.400;2023-08-08T01:47:37;98035.69;;;11.38;93.05
9423;BME280;65863;49.506;10.400;2023-08-08T01:50:21;98024.25;;;11.36;92.92
9423;BME280;65863;49.506;10.400;2023-08-08T01:53:05;98006.44;;;11.26;92.61
9423;BME280;65863;49.506;10.400;2023-08-08T01:55:49;98048.84;;;11.59;92.76
9423;BME280;65863;49.506;10.400;2023-08-08T01:58:33;98064.25;;;11.65;92.64
9423;BME280;65863;49.506;10.400;2023-08-08T02:01:18;98037.56;;;11.51;92.85
9423;BME280;65863;49.506;10.400;2023-08-08T02:04:03;98052.97;;;11.58;92.93
9423;BME280;65863;49.506;10.400;2023-08-08T02:06:47;98062.91;;;11.66;92.66
9423;BME280;65863;49.506;10.400;2023-08-08T02:09:31;98070.78;;;11.68;93.00
9423;BME280;65863;49.506;10.400;2023-08-08T02:12:15;98076.03;;;11.71;93.25
9423;BME280;65863;49.506;10.400;2023-08-08T02:14:59;98053.31;;;11.39;93.62
9423;BME280;65863;49.506;10.400;2023-08-08T02:17:43;98078.09;;;11.63;94.48
9423;BME280;65863;49.506;10.400;2023-08-08T02:20:28;98062.16;;;11.58;95.43
9423;BME280;65863;49.506;10.400;2023-08-08T02:23:13;98044.31;;;11.48;95.68
9423;BME280;65863;49.506;10.400;2023-08-08T02:25:57;98053.53;;;11.56;96.22
9423;BME280;65863;49.506;10.400;2023-08-08T02:28:42;97980.56;;;11.12;96.90
9423;BME280;65863;49.506;10.400;2023-08-08T02:31:27;98046.97;;;11.53;97.17
9423;BME280;65863;49.506;10.400;2023-08-08T02:34:11;98067.22;;;11.67;97.97
9423;BME280;65863;49.506;10.400;2023-08-08T02:36:55;98073.06;;;11.69;98.20
9423;BME280;65863;49.506;10.400;2023-08-08T02:39:39;98046.97;;;11.53;98.59
9423;BME280;65863;49.506;10.400;2023-08-08T02:42:23;98023.69;;;11.37;98.62
9423;BME280;65863;49.506;10.400;2023-08-08T02:45:07;98047.69;;;11.39;98.67
9423;BME280;65863;49.506;10.400;2023-08-08T02:47:51;98051.78;;;11.30;99.14
9423;BME280;65863;49.506;10.400;2023-08-08T02:50:36;98033.16;;;11.03;99.39
9423;BME280;65863;49.506;10.400;2023-08-08T02:53:20;98051.34;;;11.10;99.49
9423;BME280;65863;49.506;10.400;2023-08-08T02:56:05;98032.28;;;10.80;99.44
9423;BME280;65863;49.506;10.400;2023-08-08T02:58:53;98038.06;;;10.74;99.85
9423;BME280;65863;49.506;10.400;2023-08-08T03:01:38;98003.88;;;10.47;100.00
9423;BME280;65863;49.506;10.400;2023-08-08T03:04:26;98046.63;;;10.61;100.00
9423;BME280;65863;49.506;10.400;2023-08-08T03:07:10;98039.88;;;10.56;100.00
9423;BME280;65863;49.506;10.400;2023-08-08T03:09:55;98041.50;;;10.51;100.00
9423;BME280;65863;49.506;10.400;2023-08-08T03:12:40;98011.59;;;10.25;100.00
9423;BME280;65863;49.506;10.400;2023-08-08T03:15:26;97986.31;;;9.96;100.00
9423;BME280;65863;49.506;10.400;2023-08-08T03:18:10;98065.22;;;10.43;100.00
9423;BME280;65863;49.506;10.400;2023-08-08T03:20:54;98038.19;;;10.32;100.00
9423;BME280;65863;49.506;10.400;2023-08-08T03:23:40;98030.69;;;10.27;100.00
9423;BME280;65863;49.506;10.400;2023-08-08T03:26:24;98036.84;;;10.25;100.00
9423;BME280;65863;49.506;10.400;2023-08-08T03:29:08;98016.69;;;10.06;100.00
9423;BME280;65863;49.506;10.400;2023-08-08T03:31:58;98050.00;;;10.09;100.00
9423;BME280;65863;49.506;10.400;2023-08-08T03:34:44;98060.88;;;10.13;100.00
9423;BME280;65863;49.506;10.400;2023-08-08T03:37:30;98046.13;;;9.91;100.00
9423;BME280;65863;49.506;10.400;2023-08-08T03:40:14;98055.75;;;10.04;100.00
9423;BME280;65863;49.506;10.400;2023-08-08T03:42:59;98048.00;;;9.96;100.00
9423;BME280;65863;49.506;10.400;2023-08-08T03:45:44;98039.09;;;9.98;100.00
9423;BME280;65863;49.506;10.400;2023-08-08T03:48:29;98043.72;;;9.95;100.00
9423;BME280;65863;49.506;10.400;2023-08-08T03:51:14;98027.19;;;9.84;100.00
9423;BME280;65863;49.506;10.400;2023-08-08T03:53:58;98030.69;;;9.77;100.00
9423;BME280;65863;49.506;10.400;2023-08-08T03:56:42;98030.28;;;9.73;100.00
9423;BME280;65863;49.506;10.400;2023-08-08T03:59:26;98033.75;;;9.65;100.00
9423;BME280;65863;49.506;10.400;2023-08-08T04:02:10;98039.56;;;9.68;100.00
9423;BME280;65863;49.506;10.400;2023-08-08T04:04:55;98024.09;;;9.53;100.00
9423;BME280;65863;49.506;10.400;2023-08-08T04:07:39;98030.81;;;9.50;100.00
9423;BME280;65863;49.506;10.400;2023-08-08T04:10:23;98068.75;;;9.72;100.00
9423;BME280;65863;49.506;10.400;2023-08-08T04:13:07;98025.47;;;9.39;100.00
9423;BME280;65863;49.506;10.400;2023-08-08T04:15:51;98060.81;;;9.63;100.00
9423;BME280;65863;49.506;10.400;2023-08-08T04:18:35;98060.72;;;9.55;100.00
9423;BME280;65863;49.506;10.400;2023-08-08T04:21:19;98062.25;;;9.56;100.00
9423;BME280;65863;49.506;10.400;2023-08-08T04:24:03;98046.31;;;9.51;100.00
9423;BME280;65863;49.506;10.400;2023-08-08T04:26:47;98015.34;;;9.36;100.00
9423;BME280;65863;49.506;10.400;2023-08-08T04:29:31;98056.63;;;9.56;100.00
9423;BME280;65863;49.506;10.400;2023-08-08T04:32:16;98051.16;;;9.51;100.00
9423;BME280;65863;49.506;10.400;2023-08-08T04:35:00;98040.09;;;9.45;100.00
9423;BME280;65863;49.506;10.400;2023-08-08T04:37:44;98047.94;;;9.46;100.00
9423;BME280;65863;49.506;10.400;2023-08-08T04:40:28;98054.72;;;9.51;100.00
9423;BME280;65863;49.506;10.400;2023-08-08T04:43:12;98067.31;;;9.58;100.00
9423;BME280;65863;49.506;10.400;2023-08-08T04:45:56;98008.16;;;9.27;100.00
9423;BME280;65863;49.506;10.400;2023-08-08T04:48:40;98054.44;;;9.62;100.00
9423;BME280;65863;49.506;10.400;2023-08-08T04:51:24;98049.25;;;9.67;100.00
9423;BME280;65863;49.506;10.400;2023-08-08T04:54:08;98029.09;;;9.68;100.00
9423;BME280;65863;49.506;10.400;2023-08-08T04:56:52;98040.97;;;9.82;100.00
9423;BME280;65863;49.506;10.400;2023-08-08T04:59:36;97993.97;;;9.67;100.00
9423;BME280;65863;49.506;10.400;2023-08-08T05:02:20;98045.56;;;10.14;100.00
9423;BME280;65863;49.506;10.400;2023-08-08T05:05:05;98065.28;;;10.50;100.00
9423;BME280;65863;49.506;10.400;2023-08-08T05:07:49;98041.66;;;10.46;100.00
9423;BME280;65863;49.506;10.400;2023-08-08T05:10:33;98046.97;;;10.57;100.00
9423;BME280;65863;49.506;10.400;2023-08-08T05:13:17;98030.13;;;10.57;100.00
9423;BME280;65863;49.506;10.400;2023-08-08T05:16:02;98019.19;;;10.75;100.00
9423;BME280;65863;49.506;10.400;2023-08-08T05:18:46;97998.88;;;10.97;100.00
9423;BME280;65863;49.506;10.400;2023-08-08T05:21:30;98048.34;;;12.22;100.00
9423;BME280;65863;49.506;10.400;2023-08-08T05:24:14;98003.78;;;12.59;100.00
9423;BME280;65863;49.506;10.400;2023-08-08T05:26:58;98037.84;;;12.94;100.00
9423;BME280;65863;49.506;10.400;2023-08-08T05:29:42;98047.56;;;13.01;99.42
9423;BME280;65863;49.506;10.400;2023-08-08T05:32:26;98055.09;;;12.98;97.97
9423;BME280;65863;49.506;10.400;2023-08-08T05:35:10;98014.88;;;12.57;96.62
9423;BME280;65863;49.506;10.400;2023-08-08T05:37:54;98027.53;;;13.30;96.31
9423;BME280;65863;49.506;10.400;2023-08-08T05:40:38;98016.22;;;13.95;94.52
9423;BME280;65863;49.506;10.400;2023-08-08T05:43:22;97985.38;;;13.72;91.13
9423;BME280;65863;49.506;10.400;2023-08-08T05:46:06;98038.72;;;15.43;89.13
9423;BME280;65863;49.506;10.400;2023-08-08T05:48:50;98029.84;;;16.31;83.74
9423;BME280;65863;49.506;10.400;2023-08-08T05:51:34;98010.06;;;17.60;79.03
9423;BME280;65863;49.506;10.400;2023-08-08T05:54:18;98038.28;;;18.52;72.50
9423;BME280;65863;49.506;10.400;2023-08-08T05:57:03;98015.28;;;18.91;67.68
9423;BME280;65863;49.506;10.400;2023-08-08T05:59:48;98034.34;;;18.79;65.78
9423;BME280;65863;49.506;10.400;2023-08-08T06:02:32;98035.66;;;18.23;65.04
9423;BME280;65863;49.506;10.400;2023-08-08T06:05:16;98046.59;;;19.37;64.55
9423;BME280;65863;49.506;10.400;2023-08-08T06:08:01;98024.00;;;19.63;62.77
9423;BME280;65863;49.506;10.400;2023-08-08T06:10:45;98035.56;;;20.12;61.44
9423;BME280;65863;49.506;10.400;2023-08-08T06:13:29;98030.38;;;18.72;61.40
9423;BME280;65863;49.506;10.400;2023-08-08T06:16:13;98041.09;;;17.68;64.49
9423;BME280;65863;49.506;10.400;2023-08-08T06:18:56;98027.50;;;16.76;67.31
9423;BME280;65863;49.506;10.400;2023-08-08T06:21:41;98039.72;;;16.69;69.99
9423;BME280;65863;49.506;10.400;2023-08-08T06:24:25;98046.75;;;17.07;71.13
9423;BME280;65863;49.506;10.400;2023-08-08T06:27:09;98030.19;;;16.64;71.44
9423;BME280;65863;49.506;10.400;2023-08-08T06:29:53;98014.50;;;16.63;71.66
9423;BME280;65863;49.506;10.400;2023-08-08T06:32:37;98030.81;;;17.63;71.50
9423;BME280;65863;49.506;10.400;2023-08-08T06:35:21;98035.66;;;18.66;67.82
9423;BME280;65863;49.506;10.400;2023-08-08T06:38:05;98007.78;;;19.08;65.35
9423;BME280;65863;49.506;10.400;2023-08-08T06:40:49;98012.66;;;19.29;62.71
9423;BME280;65863;49.506;10.400;2023-08-08T06:43:34;98019.63;;;18.28;63.70
9423;BME280;65863;49.506;10.400;2023-08-08T06:46:18;98020.56;;;18.20;64.65
9423;BME280;65863;49.506;10.400;2023-08-08T06:49:04;98027.19;;;18.56;66.22
9423;BME280;65863;49.506;10.400;2023-08-08T06:51:48;97979.56;;;19.00;64.65
9423;BME280;65863;49.506;10.400;2023-08-08T06:54:32;98017.31;;;18.57;62.89
9423;BME280;65863;49.506;10.400;2023-08-08T06:57:16;98016.91;;;18.30;65.40
9423;BME280;65863;49.506;10.400;2023-08-08T07:00:01;98037.44;;;17.97;66.10
9423;BME280;65863;49.506;10.400;2023-08-08T07:02:46;98005.63;;;17.47;67.99
9423;BME280;65863;49.506;10.400;2023-08-08T07:05:30;97998.72;;;18.45;67.68
9423;BME280;65863;49.506;10.400;2023-08-08T07:08:14;98016.56;;;19.00;65.24
9423;BME280;65863;49.506;10.400;2023-08-08T07:10:58;98012.59;;;20.34;63.40
9423;BME280;65863;49.506;10.400;2023-08-08T07:13:42;97998.78;;;19.81;60.85
9423;BME280;65863;49.506;10.400;2023-08-08T07:16:26;97976.22;;;19.49;61.10
9423;BME280;65863;49.506;10.400;2023-08-08T07:19:10;98002.31;;;20.40;60.35
9423;BME280;65863;49.506;10.400;2023-08-08T07:21:55;97935.59;;;19.13;59.89
9423;BME280;65863;49.506;10.400;2023-08-08T07:24:39;98013.53;;;18.43;63.01
9423;BME280;65863;49.506;10.400;2023-08-08T07:27:23;98000.41;;;17.44;64.53
9423;BME280;65863;49.506;10.400;2023-08-08T07:30:07;98009.25;;;17.28;67.00
9423;BME280;65863;49.506;10.400;2023-08-08T07:32:52;97983.16;;;17.20;68.55
9423;BME280;65863;49.506;10.400;2023-08-08T07:35:36;97997.34;;;17.10;68.81
9423;BME280;65863;49.506;10.400;2023-08-08T07:38:20;98002.53;;;17.24;68.88
9423;BME280;65863;49.506;10.400;2023-08-08T07:41:04;98003.19;;;17.53;68.51
9423;BME280;65863;49.506;10.400;2023-08-08T07:43:48;97995.19;;;17.40;68.11
9423;BME280;65863;49.506;10.400;2023-08-08T07:46:32;97979.91;;;17.04;67.04
9423;BME280;65863;49.506;10.400;2023-08-08T07:49:16;98004.22;;;17.07;67.00
9423;BME280;65863;49.506;10.400;2023-08-08T07:52:00;97989.75;;;16.74;66.75
9423;BME280;65863;49.506;10.400;2023-08-08T07:54:44;98002.28;;;16.70;66.74
9423;BME280;65863;49.506;10.400;2023-08-08T07:57:28;97994.41;;;16.89;67.46
9423;BME280;65863;49.506;10.400;2023-08-08T08:00:14;98005.53;;;17.26;67.02
9423;BME280;65863;49.506;10.400;2023-08-08T08:02:59;98011.00;;;17.43;65.29
9423;BME280;65863;49.506;10.400;2023-08-08T08:05:43;97996.50;;;17.49;63.86
9423;BME280;65863;49.506;10.400;2023-08-08T08:08:27;97996.50;;;17.49;61.71
9423;BME280;65863;49.506;10.400;2023-08-08T08:11:10;97976.38;;;17.35;62.10
9423;BME280;65863;49.506;10.400;2023-08-08T08:13:56;98020.03;;;17.20;60.35
9423;BME280;65863;49.506;10.400;2023-08-08T08:16:40;97994.22;;;17.06;59.99
9423;BME280;65863;49.506;10.400;2023-08-08T08:19:24;97966.56;;;17.16;60.22
9423;BME280;65863;49.506;10.400;2023-08-08T08:22:09;97975.03;;;17.36;58.60
9423;BME280;65863;49.506;10.400;2023-08-08T08:24:54;98003.28;;;17.75;58.73
9423;BME280;65863;49.506;10.400;2023-08-08T08:27:38;98016.94;;;17.98;59.40
9423;BME280;65863;49.506;10.400;2023-08-08T08:30:22;97992.63;;;18.17;59.17
9423;BME280;65863;49.506;10.400;2023-08-08T08:33:09;97975.91;;;18.33;58.34
9423;BME280;65863;49.506;10.400;2023-08-08T08:35:53;97994.63;;;18.69;58.19
9423;BME280;65863;49.506;10.400;2023-08-08T08:38:37;97969.00;;;18.14;55.50
9423;BME280;65863;49.506;10.400;2023-08-08T08:41:25;97986.06;;;18.36;56.12
9423;BME280;65863;49.506;10.400;2023-08-08T08:44:10;97991.97;;;18.83;56.47
9423;BME280;65863;49.506;10.400;2023-08-08T08:46:55;97999.00;;;18.49;55.38
9423;BME280;65863;49.506;10.400;2023-08-08T08:49:42;98002.28;;;18.88;56.32
9423;BME280;65863;49.506;10.400;2023-08-08T08:52:27;97984.03;;;18.70;56.17
9423;BME280;65863;49.506;10.400;2023-08-08T08:55:11;98014.88;;;18.64;55.22
9423;BME280;65863;49.506;10.400;2023-08-08T08:57:55;98023.53;;;18.22;56.21
9423;BME280;65863;49.506;10.400;2023-08-08T09:00:40;98016.47;;;18.02;56.81
9423;BME280;65863;49.506;10.400;2023-08-08T09:03:25;98014.59;;;18.16;57.01
9423;BME280;65863;49.506;10.400;2023-08-08T09:06:09;98020.94;;;18.05;58.04
9423;BME280;65863;49.506;10.400;2023-08-08T09:08:53;97989.03;;;17.85;58.67
9423;BME280;65863;49.506;10.400;2023-08-08T09:11:37;97998.66;;;17.70;57.84
9423;BME280;65863;49.506;10.400;2023-08-08T09:14:23;97983.13;;;17.71;57.74
9423;BME280;65863;49.506;10.400;2023-08-08T09:17:12;97995.69;;;17.68;58.16
9423;BME280;65863;49.506;10.400;2023-08-08T09:19:57;98002.38;;;17.72;57.51
9423;BME280;65863;49.506;10.400;2023-08-08T09:22:42;97974.97;;;18.18;57.82
9423;BME280;65863;49.506;10.400;2023-08-08T09:25:26;98007.16;;;18.76;57.96
9423;BME280;65863;49.506;10.400;2023-08-08T09:28:10;97972.47;;;18.56;56.57
9423;BME280;65863;49.506;10.400;2023-08-08T09:30:55;97964.47;;;18.42;55.34
9423;BME280;65863;49.506;10.400;2023-08-08T09:33:39;97976.84;;;18.26;55.91
9423;BME280;65863;49.506;10.400;2023-08-08T09:36:23;97943.84;;;18.42;56.63
9423;BME280;65863;49.506;10.400;2023-08-08T09:39:08;97986.53;;;19.09;56.80
9423;BME280;65863;49.506;10.400;2023-08-08T09:41:52;97981.78;;;18.68;55.74
9423;BME280;65863;49.506;10.400;2023-08-08T09:44:36;97969.13;;;18.81;56.58
9423;BME280;65863;49.506;10.400;2023-08-08T09:47:21;97960.38;;;18.89;55.89
9423;BME280;65863;49.506;10.400;2023-08-08T09:50:06;97947.56;;;18.78;55.80
9423;BME280;65863;49.506;10.400;2023-08-08T09:52:52;97954.13;;;18.47;54.49
9423;BME280;65863;49.506;10.400;2023-08-08T09:55:37;97945.16;;;18.63;54.85
9423;BME280;65863;49.506;10.400;2023-08-08T09:58:21;97949.50;;;18.64;55.61
9423;BME280;65863;49.506;10.400;2023-08-08T10:01:06;97971.13;;;18.90;55.77
9423;BME280;65863;49.506;10.400;2023-08-08T10:03:51;97955.38;;;18.78;55.43
9423;BME280;65863;49.506;10.400;2023-08-08T10:06:36;97962.75;;;18.71;53.75
9423;BME280;65863;49.506;10.400;2023-08-08T10:09:20;97961.03;;;18.99;53.63
9423;BME280;65863;49.506;10.400;2023-08-08T10:12:06;97913.25;;;18.52;53.28
9423;BME280;65863;49.506;10.400;2023-08-08T10:14:50;97960.69;;;18.83;53.26
9423;BME280;65863;49.506;10.400;2023-08-08T10:17:36;97899.91;;;18.55;53.03
9423;BME280;65863;49.506;10.400;2023-08-08T10:20:20;97961.09;;;19.35;52.90
9423;BME280;65863;49.506;10.400;2023-08-08T10:23:05;97943.22;;;18.99;51.26
9423;BME280;65863;49.506;10.400;2023-08-08T10:25:51;97928.78;;;18.73;51.05
9423;BME280;65863;49.506;10.400;2023-08-08T10:28:36;97933.28;;;18.54;50.44
9423;BME280;65863;49.506;10.400;2023-08-08T10:31:20;97962.94;;;18.85;50.79
9423;BME280;65863;49.506;10.400;2023-08-08T10:34:05;97953.78;;;19.20;52.26
9423;BME280;65863;49.506;10.400;2023-08-08T10:36:51;97935.88;;;19.53;51.98
9423;BME280;65863;49.506;10.400;2023-08-08T10:39:36;97813.47;;;18.82;50.79
9423;BME280;65863;49.506;10.400;2023-08-08T10:42:22;97917.38;;;19.06;49.30
9423;BME280;65863;49.506;10.400;2023-08-08T10:45:10;97945.16;;;19.77;49.19
9423;BME280;65863;49.506;10.400;2023-08-08T10:47:54;97921.88;;;19.33;46.43
9423;BME280;65863;49.506;10.400;2023-08-08T10:50:41;97923.22;;;19.20;47.53
9423;BME280;65863;49.506;10.400;2023-08-08T10:53:29;97924.59;;;19.43;49.20
9423;BME280;65863;49.506;10.400;2023-08-08T10:56:13;97915.81;;;19.63;49.90
9423;BME280;65863;49.506;10.400;2023-08-08T10:58:57;97939.72;;;19.81;48.89
9423;BME280;65863;49.506;10.400;2023-08-08T11:01:42;97930.44;;;19.81;47.99
9423;BME280;65863;49.506;10.400;2023-08-08T11:04:28;97950.09;;;20.12;48.70
9423;BME280;65863;49.506;10.400;2023-08-08T11:07:14;97912.22;;;19.74;48.74
9423;BME280;65863;49.506;10.400;2023-08-08T11:10:00;97924.97;;;19.97;48.89
9423;BME280;65863;49.506;10.400;2023-08-08T11:12:56;97924.63;;;19.55;48.90
9423;BME280;65863;49.506;10.400;2023-08-08T11:15:41;97914.56;;;19.66;50.24
9423;BME280;65863;49.506;10.400;2023-08-08T11:18:30;97941.44;;;19.74;50.32
9423;BME280;65863;49.506;10.400;2023-08-08T11:21:16;97917.41;;;20.01;50.19
9423;BME280;65863;49.506;10.400;2023-08-08T11:24:01;97953.00;;;20.38;49.95
9423;BME280;65863;49.506;10.400;2023-08-08T11:26:45;97934.91;;;20.71;49.10
9423;BME280;65863;49.506;10.400;2023-08-08T11:29:31;97912.09;;;20.96;49.53
9423;BME280;65863;49.506;10.400;2023-08-08T11:32:15;97930.56;;;21.21;48.84
9423;BME280;65863;49.506;10.400;2023-08-08T11:34:59;97914.75;;;20.92;47.95
9423;BME280;65863;49.506;10.400;2023-08-08T11:37:46;97938.75;;;20.75;48.72
9423;BME280;65863;49.506;10.400;2023-08-08T11:40:31;97909.66;;;20.27;47.84
9423;BME280;65863;49.506;10.400;2023-08-08T11:43:16;97901.59;;;20.24;48.24
9423;BME280;65863;49.506;10.400;2023-08-08T11:46:00;97895.72;;;20.08;47.99
9423;BME280;65863;49.506;10.400;2023-08-08T11:48:47;97907.97;;;19.99;47.80
9423;BME280;65863;49.506;10.400;2023-08-08T11:51:32;97915.44;;;19.92;47.46
9423;BME280;65863;49.506;10.400;2023-08-08T11:54:16;97905.13;;;19.99;47.56
9423;BME280;65863;49.506;10.400;2023-08-08T11:57:01;97916.50;;;20.48;48.62
9423;BME280;65863;49.506;10.400;2023-08-08T11:59:48;97892.00;;;20.43;47.91
9423;BME280;65863;49.506;10.400;2023-08-08T12:02:33;97912.47;;;20.02;47.30
9423;BME280;65863;49.506;10.400;2023-08-08T12:05:20;97884.97;;;19.94;47.34
9423;BME280;65863;49.506;10.400;2023-08-08T12:08:06;97889.81;;;20.29;48.52
9423;BME280;65863;49.506;10.400;2023-08-08T12:10:51;97919.59;;;20.90;47.55
9423;BME280;65863;49.506;10.400;2023-08-08T12:13:42;97902.09;;;20.70;47.33
9423;BME280;65863;49.506;10.400;2023-08-08T12:16:30;97932.94;;;20.73;46.17
9423;BME280;65863;49.506;10.400;2023-08-08T12:19:17;97921.09;;;20.53;45.73
9423;BME280;65863;49.506;10.400;2023-08-08T12:22:06;97910.16;;;20.87;46.05
9423;BME280;65863;49.506;10.400;2023-08-08T12:24:50;97876.91;;;20.66;44.96
9423;BME280;65863;49.506;10.400;2023-08-08T12:27:34;97879.69;;;20.78;44.83
9423;BME280;65863;49.506;10.400;2023-08-08T12:30:18;97936.84;;;21.45;44.67
9423;BME280;65863;49.506;10.400;2023-08-08T12:33:02;97905.28;;;21.15;43.91
9423;BME280;65863;49.506;10.400;2023-08-08T12:35:47;97937.19;;;21.12;43.83
9423;BME280;65863;49.506;10.400;2023-08-08T12:38:31;97924.38;;;20.73;43.92
9423;BME280;65863;49.506;10.400;2023-08-08T12:41:15;97902.09;;;20.70;45.82
9423;BME280;65863;49.506;10.400;2023-08-08T12:43:59;97910.09;;;20.99;46.19
9423;BME280;65863;49.506;10.400;2023-08-08T12:46:43;97928.59;;;20.98;45.14
9423;BME280;65863;49.506;10.400;2023-08-08T12:49:27;97906.59;;;21.01;44.61
9423;BME280;65863;49.506;10.400;2023-08-08T12:52:11;97919.41;;;21.13;44.83
9423;BME280;65863;49.506;10.400;2023-08-08T12:54:55;97922.25;;;20.74;44.66
9423;BME280;65863;49.506;10.400;2023-08-08T12:57:39;97908.44;;;20.56;44.66
9423;BME280;65863;49.506;10.400;2023-08-08T13:00:24;97889.25;;;20.19;44.54
9423;BME280;65863;49.506;10.400;2023-08-08T13:03:08;97934.31;;;20.60;46.04
9423;BME280;65863;49.506;10.400;2023-08-08T13:05:53;97906.75;;;20.77;44.67
9423;BME280;65863;49.506;10.400;2023-08-08T13:08:37;97908.44;;;20.82;44.17
9423;BME280;65863;49.506;10.400;2023-08-08T13:11:21;97919.56;;;20.64;45.66
9423;BME280;65863;49.506;10.400;2023-08-08T13:14:05;97909.72;;;20.79;46.51
9423;BME280;65863;49.506;10.400;2023-08-08T13:16:50;97884.97;;;20.70;46.48
9423;BME280;65863;49.506;10.400;2023-08-08T13:19:35;97911.66;;;20.88;45.79
9423;BME280;65863;49.506;10.400;2023-08-08T13:22:19;97903.56;;;20.71;45.72
9423;BME280;65863;49.506;10.400;2023-08-08T13:25:04;97898.34;;;20.41;45.58
9423;BME280;65863;49.506;10.400;2023-08-08T13:27:48;97881.72;;;20.12;45.77
9423;BME280;65863;49.506;10.400;2023-08-08T13:30:33;97894.25;;;20.44;46.10
9423;BME280;65863;49.506;10.400;2023-08-08T13:33:17;97897.16;;;20.84;44.90
9423;BME280;65863;49.506;10.400;2023-08-08T13:36:02;97871.13;;;20.52;44.67
9423;BME280;65863;49.506;10.400;2023-08-08T13:38:46;97871.13;;;20.52;45.17
9423;BME280;65863;49.506;10.400;2023-08-08T13:41:30;97879.41;;;20.60;46.37
9423;BME280;65863;49.506;10.400;2023-08-08T13:44:14;97886.97;;;20.55;47.35
9423;BME280;65863;49.506;10.400;2023-08-08T13:46:59;97883.50;;;20.57;47.20
9423;BME280;65863;49.506;10.400;2023-08-08T13:49:43;97886.94;;;20.93;47.73
9423;BME280;65863;49.506;10.400;2023-08-08T13:52:27;97890.19;;;20.36;48.16
9423;BME280;65863;49.506;10.400;2023-08-08T13:55:12;97890.38;;;20.14;48.60
9423;BME280;65863;49.506;10.400;2023-08-08T13:57:56;97865.59;;;20.17;49.09
9423;BME280;65863;49.506;10.400;2023-08-08T14:00:41;97869.28;;;20.19;48.95
9423;BME280;65863;49.506;10.400;2023-08-08T14:03:25;97893.03;;;20.61;48.57
9423;BME280;65863;49.506;10.400;2023-08-08T14:06:09;97868.00;;;21.25;47.37
9423;BME280;65863;49.506;10.400;2023-08-08T14:08:53;97872.19;;;22.08;45.47
9423;BME280;65863;49.506;10.400;2023-08-08T14:11:37;97893.06;;;21.82;44.41
9423;BME280;65863;49.506;10.400;2023-08-08T14:14:21;97861.75;;;21.29;43.80
9423;BME280;65863;49.506;10.400;2023-08-08T14:17:05;97899.22;;;21.77;43.04
9423;BME280;65863;49.506;10.400;2023-08-08T14:19:49;97871.75;;;21.16;42.65
9423;BME280;65863;49.506;10.400;2023-08-08T14:22:34;97876.13;;;21.31;43.76
9423;BME280;65863;49.506;10.400;2023-08-08T14:25:18;97861.94;;;21.05;43.92
9423;BME280;65863;49.506;10.400;2023-08-08T14:28:02;97860.69;;;21.36;43.25
9423;BME280;65863;49.506;10.400;2023-08-08T14:30:47;97872.44;;;21.28;43.08
9423;BME280;65863;49.506;10.400;2023-08-08T14:33:32;97887.00;;;21.35;43.78